Time,TemperatureF,DewpointF,PressureIn,WindDirection,WindDirectionDegrees,WindSpeedMPH,WindSpeedGustMPH,Humidity,HourlyPrecipIn,Conditions,Clouds,dailyrainin,SoftwareType,DateUTC
2013-01-10 00:02:00,47.0,-99.9,30.09,WNW,299,6.0,10.0,-999,-99.99,,,-99.99,,2013-01-10 08:02:00,
2013-01-10 00:12:00,47.0,-99.9,30.08,WNW,300,4.0,7.0,-999,-99.99,,,-99.99,,2013-01-10 08:12:00,
2013-01-10 00:22:00,47.0,-99.9,30.08,NW,309,7.0,9.0,-999,-99.99,,,-99.99,,2013-01-10 08:22:00,
2013-01-10 00:33:00,47.0,-99.9,30.09,NW,319,7.0,9.0,-999,-99.99,,,-99.99,,2013-01-10 08:33:00,
2013-01-10 00:42:00,47.0,-99.9,30.09,NW,317,10.0,16.0,-999,-99.99,,,-99.99,,2013-01-10 08:42:00,
2013-01-10 00:53:00,47.0,-99.9,30.08,NW,325,9.0,14.0,-999,-99.99,,,-99.99,,2013-01-10 08:53:00,
2013-01-10 01:02:00,47.0,-99.9,30.08,NW,311,6.0,9.0,-999,-99.99,,,-99.99,,2013-01-10 09:02:00,
2013-01-10 01:12:00,47.0,-99.9,30.08,NW,309,6.0,8.0,-999,-99.99,,,-99.99,,2013-01-10 09:12:00,
2013-01-10 01:22:00,47.0,-99.9,30.09,NNW,328,8.0,10.0,-999,-99.99,,,-99.99,,2013-01-10 09:22:00,
2013-01-10 01:32:00,47.0,-99.9,30.09,NW,310,9.0,12.0,-999,-99.99,,,-99.99,,2013-01-10 09:32:00,
2013-01-10 01:43:00,47.0,-99.9,30.09,NW,308,9.0,11.0,-999,-99.99,,,-99.99,,2013-01-10 09:43:00,
2013-01-10 01:53:00,46.0,-99.9,30.09,WNW,303,10.0,12.0,-999,-99.99,,,-99.99,,2013-01-10 09:53:00,
2013-01-10 02:03:00,47.0,-99.9,30.09,NNW,345,6.0,9.0,-999,-99.99,,,-99.99,,2013-01-10 10:03:00,
2013-01-10 02:12:00,46.0,-99.9,30.09,North,350,4.0,6.0,-999,-99.99,,,-99.99,,2013-01-10 10:12:00,
2013-01-10 02:22:00,46.0,-99.9,30.09,NW,311,4.0,6.0,-999,-99.99,,,-99.99,,2013-01-10 10:22:00,
2013-01-10 02:33:00,46.0,-99.9,30.10,NNW,337,4.0,8.0,-999,-99.99,,,-99.99,,2013-01-10 10:33:00,
2013-01-10 02:43:00,46.0,-99.9,30.10,NW,307,8.0,10.0,-999,-99.99,,,-99.99,,2013-01-10 10:43:00,
2013-01-10 02:53:00,46.0,-99.9,30.10,WNW,303,8.0,11.0,-999,-99.99,,,-99.99,,2013-01-10 10:53:00,
2013-01-10 03:03:00,46.0,-99.9,30.10,WNW,297,6.0,8.0,-999,-99.99,,,-99.99,,2013-01-10 11:03:00,
2013-01-10 03:12:00,46.0,-99.9,30.10,WNW,300,6.0,9.0,-999,-99.99,,,-99.99,,2013-01-10 11:12:00,
2013-01-10 03:23:00,46.0,-99.9,30.10,WNW,292,5.0,8.0,-999,-99.99,,,-99.99,,2013-01-10 11:23:00,
2013-01-10 03:33:00,46.0,-99.9,30.09,NW,310,8.0,10.0,-999,-99.99,,,-99.99,,2013-01-10 11:33:00,
2013-01-10 03:43:00,46.0,-99.9,30.10,WNW,300,9.0,12.0,-999,-99.99,,,-99.99,,2013-01-10 11:43:00,
2013-01-10 03:53:00,45.0,-99.9,30.09,WNW,303,10.0,12.0,-999,-99.99,,,-99.99,,2013-01-10 11:53:00,
2013-01-10 04:03:00,45.0,-99.9,30.09,NW,307,10.0,13.0,-999,-99.99,,,-99.99,,2013-01-10 12:03:00,
2013-01-10 04:12:00,45.0,-99.9,30.09,NW,312,8.0,11.0,-999,-99.99,,,-99.99,,2013-01-10 12:12:00,
2013-01-10 04:22:00,45.0,-99.9,30.09,NW,316,8.0,11.0,-999,-99.99,,,-99.99,,2013-01-10 12:22:00,
2013-01-10 04:33:00,45.0,-99.9,30.09,NW,323,8.0,11.0,-999,-99.99,,,-99.99,,2013-01-10 12:33:00,
2013-01-10 04:43:00,45.0,-99.9,30.09,NNW,348,7.0,10.0,-999,-99.99,,,-99.99,,2013-01-10 12:43:00,
2013-01-10 04:53:00,45.0,-99.9,30.09,North,352,7.0,9.0,-999,-99.99,,,-99.99,,2013-01-10 12:53:00,
2013-01-10 05:02:00,44.0,-99.9,30.08,NNW,348,6.0,7.0,-999,-99.99,,,-99.99,,2013-01-10 13:02:00,
2013-01-10 05:12:00,44.0,-99.9,30.08,North,355,5.0,7.0,-999,-99.99,,,-99.99,,2013-01-10 13:12:00,
2013-01-10 05:22:00,44.0,-99.9,30.09,NW,320,5.0,8.0,-999,-99.99,,,-99.99,,2013-01-10 13:22:00,
2013-01-10 05:33:00,44.0,-99.9,30.09,NNW,327,8.0,9.0,-999,-99.99,,,-99.99,,2013-01-10 13:33:00,
2013-01-10 05:42:00,44.0,-99.9,30.09,NW,326,7.0,8.0,-999,-99.99,,,-99.99,,2013-01-10 13:42:00,
2013-01-10 05:53:00,44.0,-99.9,30.09,NNW,331,6.0,8.0,-999,-99.99,,,-99.99,,2013-01-10 13:53:00,
2013-01-10 06:02:00,44.0,-99.9,30.10,NNW,337,6.0,7.0,-999,-99.99,,,-99.99,,2013-01-10 14:02:00,
2013-01-10 06:12:00,44.0,-99.9,30.10,NW,317,5.0,7.0,-999,-99.99,,,-99.99,,2013-01-10 14:12:00,
2013-01-10 06:23:00,45.0,-99.9,30.09,NW,305,7.0,9.0,-999,-99.99,,,-99.99,,2013-01-10 14:23:00,
2013-01-10 06:33:00,44.0,-99.9,30.09,NW,309,7.0,10.0,-999,-99.99,,,-99.99,,2013-01-10 14:33:00,
2013-01-10 06:44:00,44.0,-99.9,30.10,NW,306,9.0,10.0,-999,-99.99,,,-99.99,,2013-01-10 14:44:00,
2013-01-10 06:53:00,44.0,-99.9,30.10,WNW,299,9.0,12.0,-999,-99.99,,,-99.99,,2013-01-10 14:53:00,
2013-01-10 07:03:00,44.0,-99.9,30.09,WNW,299,9.0,12.0,-999,-99.99,,,-99.99,,2013-01-10 15:03:00,
2013-01-10 07:12:00,44.0,-99.9,30.09,WNW,298,9.0,13.0,-999,-99.99,,,-99.99,,2013-01-10 15:12:00,
2013-01-10 07:23:00,44.0,-99.9,30.10,WNW,300,7.0,12.0,-999,-99.99,,,-99.99,,2013-01-10 15:23:00,
2013-01-10 07:33:00,44.0,-99.9,30.11,NW,314,7.0,12.0,-999,-99.99,,,-99.99,,2013-01-10 15:33:00,
2013-01-10 07:43:00,44.0,-99.9,30.11,NNW,333,7.0,11.0,-999,-99.99,,,-99.99,,2013-01-10 15:43:00,
2013-01-10 08:03:00,44.0,-99.9,30.11,WNW,300,9.0,15.0,-999,-99.99,,,-99.99,,2013-01-10 16:03:00,
2013-01-10 08:13:00,44.0,-99.9,30.11,NW,309,11.0,13.0,-999,-99.99,,,-99.99,,2013-01-10 16:13:00,
2013-01-10 08:23:00,44.0,-99.9,30.12,NW,306,8.0,11.0,-999,-99.99,,,-99.99,,2013-01-10 16:23:00,
2013-01-10 08:33:00,44.0,-99.9,30.12,NW,306,7.0,10.0,-999,-99.99,,,-99.99,,2013-01-10 16:33:00,
2013-01-10 08:43:00,44.0,-99.9,30.12,NNW,339,2.0,7.0,-999,-99.99,,,-99.99,,2013-01-10 16:43:00,
2013-01-10 08:53:00,44.0,-99.9,30.12,NNW,345,5.0,9.0,-999,-99.99,,,-99.99,,2013-01-10 16:53:00,
2013-01-10 09:12:00,44.0,-99.9,30.12,North,8,5.0,6.0,-999,-99.99,,,-99.99,,2013-01-10 17:12:00,
2013-01-10 09:23:00,44.0,-99.9,30.12,North,8,5.0,6.0,-999,-99.99,,,-99.99,,2013-01-10 17:23:00,
2013-01-10 09:33:00,44.0,-99.9,30.13,North,6,6.0,10.0,-999,-99.99,,,-99.99,,2013-01-10 17:33:00,
2013-01-10 09:43:00,44.0,-99.9,30.13,North,6,8.0,10.0,-999,-99.99,,,-99.99,,2013-01-10 17:43:00,
2013-01-10 09:53:00,44.0,-99.9,30.13,NNE,12,9.0,10.0,-999,-99.99,,,-99.99,,2013-01-10 17:53:00,
2013-01-10 10:04:00,44.0,-99.9,30.13,North,359,5.0,11.0,-999,-99.99,,,-99.99,,2013-01-10 18:04:00,
2013-01-10 10:12:00,44.0,-99.9,30.13,NNW,345,8.0,11.0,-999,-99.99,,,-99.99,,2013-01-10 18:12:00,
2013-01-10 10:23:00,44.0,-99.9,30.13,NNW,339,6.0,9.0,-999,-99.99,,,-99.99,,2013-01-10 18:23:00,
2013-01-10 10:33:00,44.0,-99.9,30.13,NNW,335,8.0,9.0,-999,-99.99,,,-99.99,,2013-01-10 18:33:00,
2013-01-10 10:44:00,44.0,-99.9,30.13,NNW,330,7.0,9.0,-999,-99.99,,,-99.99,,2013-01-10 18:44:00,
2013-01-10 10:53:00,45.0,-99.9,30.12,NNW,335,7.0,9.0,-999,-99.99,,,-99.99,,2013-01-10 18:53:00,
2013-01-10 11:03:00,46.0,-99.9,30.12,NNW,345,11.0,14.0,-999,-99.99,,,-99.99,,2013-01-10 19:03:00,
2013-01-10 11:13:00,46.0,-99.9,30.12,NNW,338,9.0,13.0,-999,-99.99,,,-99.99,,2013-01-10 19:13:00,
2013-01-10 11:23:00,46.0,-99.9,30.12,North,349,16.0,18.0,-999,-99.99,,,-99.99,,2013-01-10 19:23:00,
2013-01-10 11:33:00,46.0,-99.9,30.12,NNW,346,16.0,20.0,-999,-99.99,,,-99.99,,2013-01-10 19:33:00,
2013-01-10 11:44:00,46.0,-99.9,30.12,NNW,348,14.0,20.0,-999,-99.99,,,-99.99,,2013-01-10 19:44:00,
2013-01-10 11:53:00,47.0,-99.9,30.11,North,350,12.0,15.0,-999,-99.99,,,-99.99,,2013-01-10 19:53:00,
2013-01-10 12:03:00,47.0,-99.9,30.11,NNW,341,10.0,12.0,-999,-99.99,,,-99.99,,2013-01-10 20:03:00,
2013-01-10 12:13:00,47.0,-99.9,30.11,North,5,12.0,18.0,-999,-99.99,,,-99.99,,2013-01-10 20:13:00,
2013-01-10 12:24:00,47.0,-99.9,30.11,NNW,346,9.0,12.0,-999,-99.99,,,-99.99,,2013-01-10 20:24:00,
2013-01-10 12:33:00,47.0,-99.9,30.10,NNW,346,14.0,17.0,-999,-99.99,,,-99.99,,2013-01-10 20:33:00,
2013-01-10 12:43:00,47.0,-99.9,30.10,NNW,346,14.0,17.0,-999,-99.99,,,-99.99,,2013-01-10 20:43:00,
2013-01-10 12:53:00,48.0,-99.9,30.09,NNW,343,12.0,16.0,-999,-99.99,,,-99.99,,2013-01-10 20:53:00,
2013-01-10 13:04:00,48.0,-99.9,30.09,NNW,343,12.0,16.0,-999,-99.99,,,-99.99,,2013-01-10 21:04:00,
2013-01-10 13:13:00,48.0,-99.9,30.09,NNW,347,7.0,15.0,-999,-99.99,,,-99.99,,2013-01-10 21:13:00,
2013-01-10 13:23:00,48.0,-99.9,30.09,NNW,344,7.0,11.0,-999,-99.99,,,-99.99,,2013-01-10 21:23:00,
2013-01-10 13:33:00,49.0,-99.9,30.09,NNW,337,12.0,15.0,-999,-99.99,,,-99.99,,2013-01-10 21:33:00,
2013-01-10 13:44:00,49.0,-99.9,30.09,NNW,334,12.0,15.0,-999,-99.99,,,-99.99,,2013-01-10 21:44:00,
2013-01-10 14:04:00,49.0,-99.9,30.09,NNW,334,13.0,16.0,-999,-99.99,,,-99.99,,2013-01-10 22:04:00,
2013-01-10 14:13:00,49.0,-99.9,30.09,NNW,344,14.0,16.0,-999,-99.99,,,-99.99,,2013-01-10 22:13:00,
2013-01-10 14:27:00,49.0,-99.9,30.09,North,358,11.0,15.0,-999,-99.99,,,-99.99,,2013-01-10 22:27:00,
2013-01-10 14:44:00,49.0,-99.9,30.09,North,350,8.0,11.0,-999,-99.99,,,-99.99,,2013-01-10 22:44:00,
2013-01-10 15:03:00,50.0,-99.9,30.09,North,350,8.0,13.0,-999,-99.99,,,-99.99,,2013-01-10 23:03:00,
2013-01-10 15:13:00,50.0,-99.9,30.09,NNW,331,10.0,14.0,-999,-99.99,,,-99.99,,2013-01-10 23:13:00,
2013-01-10 15:23:00,50.0,-99.9,30.09,NW,314,12.0,17.0,-999,-99.99,,,-99.99,,2013-01-10 23:23:00,
2013-01-10 15:33:00,50.0,-99.9,30.09,NW,323,10.0,15.0,-999,-99.99,,,-99.99,,2013-01-10 23:33:00,
2013-01-10 15:43:00,50.0,-99.9,30.09,NW,314,9.0,14.0,-999,-99.99,,,-99.99,,2013-01-10 23:43:00,
2013-01-10 15:53:00,50.0,-99.9,30.09,NW,324,9.0,11.0,-999,-99.99,,,-99.99,,2013-01-10 23:53:00,
2013-01-10 16:23:00,51.0,-99.9,30.09,NW,314,10.0,14.0,-999,-99.99,,,-99.99,,2013-01-11 00:23:00,
2013-01-10 16:33:00,51.0,-99.9,30.10,NW,306,10.0,15.0,-999,-99.99,,,-99.99,,2013-01-11 00:33:00,
2013-01-10 16:43:00,50.0,-99.9,30.09,WNW,297,11.0,15.0,-999,-99.99,,,-99.99,,2013-01-11 00:43:00,
2013-01-10 16:53:00,50.0,-99.9,30.10,NW,316,14.0,19.0,-999,-99.99,,,-99.99,,2013-01-11 00:53:00,
2013-01-10 17:03:00,50.0,-99.9,30.10,NW,315,15.0,19.0,-999,-99.99,,,-99.99,,2013-01-11 01:03:00,
2013-01-10 17:13:00,50.0,-99.9,30.10,NW,315,15.0,19.0,-999,-99.99,,,-99.99,,2013-01-11 01:13:00,
2013-01-10 17:24:00,49.0,-99.9,30.10,NW,318,10.0,17.0,-999,-99.99,,,-99.99,,2013-01-11 01:24:00,
2013-01-10 17:34:00,49.0,-99.9,30.10,NW,316,13.0,18.0,-999,-99.99,,,-99.99,,2013-01-11 01:34:00,
2013-01-10 17:53:00,49.0,-99.9,30.11,NW,319,14.0,17.0,-999,-99.99,,,-99.99,,2013-01-11 01:53:00,
2013-01-10 18:03:00,49.0,-99.9,30.11,NW,317,12.0,17.0,-999,-99.99,,,-99.99,,2013-01-11 02:03:00,
2013-01-10 18:13:00,48.0,-99.9,30.12,NW,319,13.0,17.0,-999,-99.99,,,-99.99,,2013-01-11 02:13:00,
2013-01-10 18:33:00,48.0,-99.9,30.13,NW,314,12.0,20.0,-999,-99.99,,,-99.99,,2013-01-11 02:33:00,
2013-01-10 18:44:00,48.0,-99.9,30.13,NW,315,14.0,19.0,-999,-99.99,,,-99.99,,2013-01-11 02:44:00,
2013-01-10 18:54:00,48.0,-99.9,30.13,NW,319,13.0,16.0,-999,-99.99,,,-99.99,,2013-01-11 02:54:00,
2013-01-10 19:03:00,48.0,-99.9,30.14,NW,318,14.0,18.0,-999,-99.99,,,-99.99,,2013-01-11 03:03:00,
2013-01-10 19:13:00,48.0,-99.9,30.14,NW,312,12.0,18.0,-999,-99.99,,,-99.99,,2013-01-11 03:13:00,
2013-01-10 19:23:00,48.0,-99.9,30.14,NW,311,10.0,15.0,-999,-99.99,,,-99.99,,2013-01-11 03:23:00,
2013-01-10 19:34:00,48.0,-99.9,30.14,NW,315,10.0,13.0,-999,-99.99,,,-99.99,,2013-01-11 03:34:00,
2013-01-10 19:43:00,47.0,-99.9,30.15,NW,322,10.0,13.0,-999,-99.99,,,-99.99,,2013-01-11 03:43:00,
2013-01-10 19:53:00,47.0,-99.9,30.14,NW,321,11.0,15.0,-999,-99.99,,,-99.99,,2013-01-11 03:53:00,
2013-01-10 20:03:00,47.0,-99.9,30.15,NW,322,12.0,15.0,-999,-99.99,,,-99.99,,2013-01-11 04:03:00,
2013-01-10 20:23:00,47.0,-99.9,30.15,NW,326,12.0,15.0,-999,-99.99,,,-99.99,,2013-01-11 04:23:00,
2013-01-10 20:33:00,47.0,-99.9,30.15,NW,322,12.0,16.0,-999,-99.99,,,-99.99,,2013-01-11 04:33:00,
2013-01-10 20:43:00,47.0,-99.9,30.16,NW,324,10.0,15.0,-999,-99.99,,,-99.99,,2013-01-11 04:43:00,
2013-01-10 20:53:00,47.0,-99.9,30.16,NW,326,13.0,17.0,-999,-99.99,,,-99.99,,2013-01-11 04:53:00,
2013-01-10 21:04:00,47.0,-99.9,30.16,NW,318,12.0,14.0,-999,-99.99,,,-99.99,,2013-01-11 05:04:00,
2013-01-10 21:13:00,46.0,-99.9,30.17,NW,324,11.0,15.0,-999,-99.99,,,-99.99,,2013-01-11 05:13:00,
2013-01-10 21:23:00,46.0,-99.9,30.17,NW,326,10.0,15.0,-999,-99.99,,,-99.99,,2013-01-11 05:23:00,
2013-01-10 21:33:00,46.0,-99.9,30.17,NW,319,11.0,14.0,-999,-99.99,,,-99.99,,2013-01-11 05:33:00,
2013-01-10 21:43:00,46.0,-99.9,30.17,NW,319,12.0,16.0,-999,-99.99,,,-99.99,,2013-01-11 05:43:00,
2013-01-10 21:53:00,46.0,-99.9,30.17,NW,325,13.0,16.0,-999,-99.99,,,-99.99,,2013-01-11 05:53:00,
2013-01-10 22:03:00,46.0,-99.9,30.17,NW,319,15.0,20.0,-999,-99.99,,,-99.99,,2013-01-11 06:03:00,
2013-01-10 22:12:00,46.0,-99.9,30.17,NW,322,12.0,17.0,-999,-99.99,,,-99.99,,2013-01-11 06:12:00,
2013-01-10 22:22:00,46.0,-99.9,30.18,NW,325,12.0,16.0,-999,-99.99,,,-99.99,,2013-01-11 06:22:00,
2013-01-10 22:33:00,46.0,-99.9,30.18,NW,324,16.0,20.0,-999,-99.99,,,-99.99,,2013-01-11 06:33:00,
2013-01-10 22:42:00,46.0,-99.9,30.18,NW,324,16.0,20.0,-999,-99.99,,,-99.99,,2013-01-11 06:42:00,
2013-01-10 22:52:00,46.0,-99.9,30.18,NW,325,15.0,20.0,-999,-99.99,,,-99.99,,2013-01-11 06:52:00,
2013-01-10 23:02:00,46.0,-99.9,30.18,NW,322,16.0,19.0,-999,-99.99,,,-99.99,,2013-01-11 07:02:00,
2013-01-10 23:12:00,46.0,-99.9,30.19,NW,322,16.0,19.0,-999,-99.99,,,-99.99,,2013-01-11 07:12:00,
2013-01-10 23:22:00,46.0,-99.9,30.19,NNW,329,13.0,19.0,-999,-99.99,,,-99.99,,2013-01-11 07:22:00,
2013-01-10 23:32:00,46.0,-99.9,30.19,NNW,332,13.0,17.0,-999,-99.99,,,-99.99,,2013-01-11 07:32:00,
2013-01-10 23:42:00,46.0,-99.9,30.19,NNW,331,16.0,19.0,-999,-99.99,,,-99.99,,2013-01-11 07:42:00,
2013-01-10 23:53:00,46.0,-99.9,30.19,NW,325,15.0,18.0,-999,-99.99,,,-99.99,,2013-01-11 07:53:00,